createdAt,value
2019-01-09T00:01:26.914Z,98.52
2019-01-09T00:03:56.522Z,97.70
2019-01-09T00:06:26.327Z,98.25
2019-01-09T00:08:56.013Z,98.60
2019-01-09T00:11:25.690Z,98.29
2019-01-09T00:13:55.327Z,97.99
2019-01-09T00:16:25.012Z,98.39
2019-01-09T00:18:54.657Z,98.31
2019-01-09T00:21:24.165Z,98.46
2019-01-09T00:23:54.576Z,97.98
2019-01-09T00:26:24.251Z,97.74
2019-01-09T00:28:54.033Z,97.91
2019-01-09T00:31:23.544Z,98.37
2019-01-09T00:33:53.491Z,98.53
2019-01-09T00:36:24.136Z,98.48
2019-01-09T00:38:53.735Z,98.38
2019-01-09T00:41:23.425Z,99.11
2019-01-09T00:43:53.055Z,98.91
2019-01-09T00:46:22.578Z,99.33
2019-01-09T00:48:52.373Z,99.07
2019-01-09T00:51:21.981Z,99.23
2019-01-09T00:53:51.587Z,99.15
2019-01-09T00:56:21.242Z,98.79
2019-01-09T00:58:50.868Z,98.76
2019-01-09T01:01:20.583Z,98.78
2019-01-09T01:04:19.228Z,99.11
2019-01-09T01:07:43.253Z,99.08
2019-01-09T01:11:08.499Z,99.12
2019-01-09T01:14:22.264Z,99.26
2019-01-09T01:17:37.889Z,99.18
2019-01-09T01:21:02.654Z,99.15
2019-01-09T01:24:44.728Z,98.33
2019-01-09T01:28:15.349Z,98.12
2019-01-09T01:31:15.687Z,97.71
2019-01-09T01:34:29.447Z,97.77
2019-01-09T01:37:36.118Z,97.35
2019-01-09T01:40:35.239Z,97.37
2019-01-09T01:43:35.549Z,96.41
2019-01-09T01:46:45.536Z,96.14
2019-01-09T01:50:09.381Z,95.07
2019-01-09T01:53:25.515Z,95.30
2019-01-09T01:56:19.057Z,95.26
2019-01-09T01:58:59.319Z,95.93
2019-01-09T02:02:10.814Z,96.41
2019-01-09T02:05:27.522Z,96.91
2019-01-09T02:09:11.558Z,97.11
2019-01-09T02:12:23.186Z,97.19
2019-01-09T02:15:32.180Z,97.22
2019-01-09T02:22:16.371Z,97.89
2019-01-09T02:25:39.802Z,97.96
2019-01-09T02:28:40.146Z,98.39
2019-01-09T02:31:49.865Z,98.66
2019-01-09T02:34:19.770Z,98.99
2019-01-09T02:36:51.730Z,98.85
2019-01-09T02:39:23.537Z,99.11
2019-01-09T02:41:53.652Z,98.73
2019-01-09T02:44:31.864Z,98.60
2019-01-09T02:46:56.253Z,98.44
2019-01-09T02:49:26.052Z,98.44
2019-01-09T02:51:55.810Z,98.05
2019-01-09T02:54:25.383Z,97.75
2019-01-09T02:56:55.036Z,97.38
2019-01-09T02:59:24.588Z,96.83
2019-01-09T03:01:55.530Z,97.14
2019-01-09T03:04:25.437Z,97.01
2019-01-09T03:06:55.651Z,97.15
2019-01-09T03:09:26.701Z,96.95
2019-01-09T03:11:56.570Z,96.84
2019-01-09T03:14:27.212Z,96.85
2019-01-09T03:16:57.040Z,97.04
2019-01-09T03:19:26.945Z,96.93
2019-01-09T03:21:58.949Z,96.63
2019-01-09T03:24:28.893Z,96.45
2019-01-09T03:27:00.214Z,96.80
2019-01-09T03:29:29.986Z,96.81
2019-01-09T03:32:01.302Z,97.02
2019-01-09T03:34:31.230Z,96.96
2019-01-09T03:37:00.916Z,96.87
2019-01-09T03:39:31.811Z,96.67
2019-01-09T03:42:01.803Z,96.66
2019-01-09T03:44:31.547Z,96.63
2019-01-09T03:47:01.231Z,96.55
2019-01-09T03:49:30.929Z,95.56
2019-01-09T03:52:00.585Z,95.71
2019-01-09T03:54:30.247Z,95.47
2019-01-09T03:56:59.922Z,95.65
2019-01-09T03:59:29.802Z,95.78
2019-01-09T04:01:59.604Z,95.69
2019-01-09T04:04:29.321Z,95.36
2019-01-09T04:06:59.065Z,95.34
2019-01-09T04:09:28.790Z,95.32
2019-01-09T04:11:58.619Z,95.57
2019-01-09T04:14:28.336Z,95.78
2019-01-09T04:16:58.009Z,95.94
2019-01-09T04:19:27.613Z,95.92
2019-01-09T04:21:57.262Z,95.79
2019-01-09T04:24:27.002Z,96.09
2019-01-09T04:26:56.988Z,95.80
2019-01-09T04:29:26.725Z,95.42
2019-01-09T04:31:56.488Z,95.63
2019-01-09T04:34:26.251Z,95.38
2019-01-09T04:36:56.125Z,96.06
2019-01-09T04:39:25.857Z,95.92
2019-01-09T04:41:55.853Z,96.14
2019-01-09T04:44:25.688Z,96.07
2019-01-09T04:46:58.863Z,96.55
2019-01-09T04:49:28.561Z,96.74
2019-01-09T04:51:58.279Z,96.67
2019-01-09T04:54:28.031Z,96.44
2019-01-09T04:56:57.705Z,96.12
2019-01-09T04:59:27.493Z,96.05
2019-01-09T05:01:57.078Z,96.11
2019-01-09T05:04:26.745Z,96.31
2019-01-09T05:07:00.695Z,96.07
2019-01-09T05:09:27.871Z,96.09
2019-01-09T05:12:00.336Z,95.91
2019-01-09T05:14:31.101Z,96.07
2019-01-09T05:17:01.688Z,96.04
2019-01-09T05:19:31.440Z,96.15
2019-01-09T05:22:03.248Z,96.44
2019-01-09T05:24:33.129Z,96.16
2019-01-09T05:27:02.800Z,96.43
2019-01-09T05:29:32.524Z,96.53
2019-01-09T05:32:02.206Z,96.52
2019-01-09T05:34:34.126Z,96.38
2019-01-09T05:37:09.513Z,96.76
2019-01-09T05:39:39.784Z,97.02
2019-01-09T05:42:06.831Z,96.96
2019-01-09T05:44:36.710Z,96.87
2019-01-09T05:47:06.367Z,96.69
2019-01-09T05:49:36.047Z,96.81
2019-01-09T05:52:05.658Z,96.66
2019-01-09T05:54:35.355Z,96.53
2019-01-09T05:57:04.948Z,96.46
2019-01-09T05:59:34.505Z,96.50
2019-01-09T06:02:04.261Z,97.04
2019-01-09T06:04:33.935Z,97.14
2019-01-09T06:07:03.669Z,97.02
2019-01-09T06:09:33.313Z,97.10
2019-01-09T06:12:02.921Z,97.23
2019-01-09T06:14:32.532Z,97.39
2019-01-09T06:17:02.144Z,97.32
2019-01-09T06:19:31.823Z,97.74
2019-01-09T06:22:01.419Z,98.08
2019-01-09T06:24:31.066Z,98.13
2019-01-09T06:27:00.766Z,97.80
2019-01-09T06:29:30.427Z,98.25
2019-01-09T06:32:00.030Z,98.31
2019-01-09T06:34:29.790Z,98.31
2019-01-09T06:36:59.417Z,98.07
2019-01-09T06:39:29.329Z,97.98
2019-01-09T06:41:58.902Z,97.94
2019-01-09T06:44:28.618Z,97.63
2019-01-09T06:46:58.350Z,97.41
2019-01-09T06:49:28.291Z,97.41
2019-01-09T06:51:58.104Z,97.19
2019-01-09T06:54:27.798Z,96.73
2019-01-09T06:56:58.960Z,96.82
2019-01-09T06:59:28.731Z,96.86
2019-01-09T07:01:58.976Z,96.64
2019-01-09T07:04:30.594Z,96.84
2019-01-09T07:07:00.597Z,96.38
2019-01-09T07:09:32.632Z,96.68
2019-01-09T07:12:07.938Z,96.56
2019-01-09T07:14:41.762Z,96.80
2019-01-09T07:17:11.581Z,96.85
2019-01-09T07:19:41.574Z,96.67
2019-01-09T07:22:12.574Z,96.42
2019-01-09T07:24:42.551Z,96.21
2019-01-09T07:27:13.194Z,96.12
2019-01-09T07:29:43.056Z,96.26
2019-01-09T07:32:13.667Z,96.48
2019-01-09T07:34:43.345Z,96.88
2019-01-09T07:37:12.897Z,96.60
2019-01-09T07:39:42.456Z,96.76
2019-01-09T07:42:12.121Z,96.66
2019-01-09T07:44:41.739Z,97.16
2019-01-09T07:47:11.350Z,97.21
2019-01-09T07:49:43.904Z,96.89
2019-01-09T07:52:13.758Z,96.57
2019-01-09T07:54:44.295Z,95.70
2019-01-09T07:57:13.912Z,95.63
2019-01-09T07:59:43.608Z,94.95
2019-01-09T08:02:13.130Z,94.62
2019-01-09T08:04:42.614Z,94.27
2019-01-09T08:07:12.349Z,93.83
2019-01-09T08:09:42.529Z,93.87
2019-01-09T08:12:13.899Z,93.58
2019-01-09T08:14:43.534Z,93.01
2019-01-09T08:17:13.607Z,91.13
2019-01-09T08:19:43.326Z,90.44
2019-01-09T08:22:12.958Z,90.48
2019-01-09T08:24:43.875Z,90.11
2019-01-09T08:27:32.466Z,89.02
2019-01-09T08:30:02.078Z,87.97
2019-01-09T08:32:34.018Z,86.35
2019-01-09T08:35:04.117Z,86.24
2019-01-09T08:37:33.809Z,86.03
2019-01-09T08:40:03.765Z,86.35
2019-01-09T08:42:33.457Z,85.89
2019-01-09T08:45:04.341Z,85.19
2019-01-09T08:47:34.014Z,83.81
2019-01-09T08:50:14.190Z,83.55
2019-01-09T08:52:44.502Z,83.26
2019-01-09T08:55:17.305Z,82.39
2019-01-09T08:57:46.991Z,82.52
2019-01-09T09:00:16.636Z,82.38
2019-01-09T09:02:46.355Z,81.68
2019-01-09T09:05:16.005Z,81.43
2019-01-09T09:08:11.839Z,81.62
2019-01-09T09:10:40.228Z,81.81
2019-01-09T09:13:11.987Z,82.34
2019-01-09T09:15:41.523Z,81.63
2019-01-09T09:18:11.270Z,82.17
2019-01-09T09:20:40.820Z,81.54
2019-01-09T09:23:10.540Z,80.79
2019-01-09T09:25:40.195Z,80.22
2019-01-09T09:28:09.814Z,80.71
2019-01-09T09:30:39.347Z,80.96
2019-01-09T09:33:09.115Z,81.14
2019-01-09T09:35:38.723Z,81.22
2019-01-09T09:38:08.415Z,81.28
2019-01-09T09:40:39.234Z,80.96
2019-01-09T09:43:08.974Z,80.46
2019-01-09T09:45:38.616Z,80.67
2019-01-09T09:48:08.782Z,80.03
2019-01-09T09:50:39.486Z,80.17
2019-01-09T09:53:09.068Z,79.99
2019-01-09T09:55:38.595Z,79.69
2019-01-09T09:58:08.248Z,79.88
2019-01-09T10:00:37.968Z,79.49
2019-01-09T10:03:07.446Z,79.76
2019-01-09T10:05:37.001Z,80.36
2019-01-09T10:08:11.352Z,80.03
2019-01-09T10:10:44.686Z,80.18
2019-01-09T10:13:14.231Z,80.25
2019-01-09T10:15:44.054Z,80.49
2019-01-09T10:18:13.681Z,81.11
2019-01-09T10:20:43.227Z,80.15
2019-01-09T10:23:12.710Z,80.27
2019-01-09T10:25:42.270Z,80.46
2019-01-09T10:28:11.990Z,80.23
2019-01-09T10:30:45.466Z,79.20
2019-01-09T10:33:15.013Z,79.92
2019-01-09T10:35:44.606Z,79.46
2019-01-09T10:38:27.384Z,79.70
2019-01-09T10:40:57.073Z,80.16
2019-01-09T10:43:26.693Z,79.41
2019-01-09T10:45:56.238Z,79.59
2019-01-09T10:49:25.520Z,79.46
2019-01-09T10:51:57.318Z,79.80
2019-01-09T10:54:26.881Z,77.42
2019-01-09T10:57:08.972Z,77.87
2019-01-09T10:59:38.558Z,76.49
2019-01-09T11:02:10.335Z,74.41
2019-01-09T11:04:40.096Z,76.68
2019-01-09T11:07:12.572Z,74.90
2019-01-09T11:09:46.268Z,76.13
2019-01-09T11:12:16.329Z,74.60
2019-01-09T11:14:52.725Z,73.13
2019-01-09T11:17:55.282Z,73.76
2019-01-09T11:20:30.754Z,70.38
2019-01-09T11:23:07.738Z,72.21
2019-01-09T11:25:37.447Z,72.06
2019-01-09T11:28:07.544Z,71.93
2019-01-09T11:30:42.053Z,72.01
2019-01-09T11:33:12.082Z,71.73
2019-01-09T11:35:42.043Z,70.77
2019-01-09T11:38:24.632Z,72.14
2019-01-09T11:40:54.276Z,69.89
2019-01-09T11:43:31.599Z,71.20
2019-01-09T11:46:01.229Z,71.22
2019-01-09T11:48:32.713Z,69.91
2019-01-09T11:51:02.326Z,69.99
2019-01-09T11:53:35.118Z,68.80
2019-01-09T11:56:05.602Z,68.53
2019-01-09T11:58:36.491Z,69.87
2019-01-09T12:01:07.359Z,69.94
2019-01-09T12:03:57.838Z,68.85
2019-01-09T12:06:27.658Z,69.52
2019-01-09T12:09:04.468Z,69.20
2019-01-09T12:11:31.638Z,67.81
2019-01-09T12:14:37.060Z,67.17
2019-01-09T12:17:06.963Z,66.33
2019-01-09T12:19:36.624Z,67.22
2019-01-09T12:22:06.246Z,66.36
2019-01-09T12:24:35.728Z,66.15
2019-01-09T12:27:05.391Z,67.54
2019-01-09T12:29:35.055Z,65.71
2019-01-09T12:32:04.528Z,66.89
2019-01-09T12:34:34.180Z,65.86
2019-01-09T12:37:03.698Z,66.38
2019-01-09T12:39:33.400Z,66.72
2019-01-09T12:42:02.961Z,66.30
2019-01-09T12:44:32.521Z,65.55
2019-01-09T12:47:02.041Z,65.63
2019-01-09T12:49:31.784Z,67.01
2019-01-09T12:52:01.373Z,66.83
2019-01-09T12:54:30.913Z,65.52
2019-01-09T12:57:00.520Z,65.20
2019-01-09T12:59:30.213Z,66.17
2019-01-09T13:02:02.635Z,66.00
2019-01-09T13:04:32.331Z,65.01
2019-01-09T13:07:01.849Z,65.89
2019-01-09T13:09:31.486Z,65.72
2019-01-09T13:12:04.264Z,66.19
2019-01-09T13:14:33.883Z,66.64
2019-01-09T13:17:11.609Z,66.44
2019-01-09T13:19:35.681Z,66.04
2019-01-09T13:22:05.284Z,66.04
2019-01-09T13:24:37.346Z,65.26
2019-01-09T13:27:06.989Z,65.23
2019-01-09T13:29:36.589Z,65.36
2019-01-09T13:32:06.230Z,65.63
2019-01-09T13:34:35.745Z,65.55
2019-01-09T13:37:06.341Z,65.91
2019-01-09T13:39:35.980Z,66.43
2019-01-09T13:42:05.710Z,66.90
2019-01-09T13:44:35.270Z,67.10
2019-01-09T13:47:04.911Z,66.54
2019-01-09T13:49:34.589Z,65.66
2019-01-09T13:52:04.229Z,65.13
2019-01-09T13:54:33.801Z,65.08
2019-01-09T13:57:03.371Z,66.58
2019-01-09T13:59:32.943Z,66.55
2019-01-09T14:02:02.869Z,66.49
2019-01-09T14:04:32.502Z,65.72
2019-01-09T14:07:02.200Z,66.75
2019-01-09T14:09:39.234Z,66.38
2019-01-09T14:12:03.235Z,65.51
2019-01-09T14:14:32.810Z,66.48
2019-01-09T14:17:02.422Z,67.03
2019-01-09T14:19:32.068Z,66.96
2019-01-09T14:22:01.592Z,65.12
2019-01-09T14:24:31.226Z,67.43
2019-01-09T14:27:00.744Z,62.99
2019-01-09T14:29:31.318Z,61.57
2019-01-09T14:32:00.939Z,60.64
2019-01-09T14:34:30.455Z,61.65
2019-01-09T14:37:00.004Z,61.95
2019-01-09T14:39:30.543Z,63.91
2019-01-09T14:42:00.584Z,65.97
2019-01-09T14:44:30.461Z,66.21
2019-01-09T14:47:00.508Z,66.81
2019-01-09T14:49:30.453Z,68.03
2019-01-09T14:52:00.568Z,67.66
2019-01-09T14:54:30.502Z,69.07
2019-01-09T14:57:00.324Z,66.77
2019-01-09T14:59:30.222Z,66.04
2019-01-09T15:01:59.984Z,65.97
2019-01-09T15:04:29.591Z,67.47
2019-01-09T15:06:59.196Z,68.81
2019-01-09T15:09:30.025Z,70.17
2019-01-09T15:11:59.886Z,70.69
2019-01-09T15:14:29.763Z,70.95
2019-01-09T15:16:59.783Z,70.51
2019-01-09T15:19:29.707Z,72.21
2019-01-09T15:21:59.561Z,72.41
2019-01-09T15:24:29.472Z,72.63
2019-01-09T15:26:59.490Z,72.94
2019-01-09T15:29:31.090Z,72.85
2019-01-09T15:32:01.232Z,72.62
2019-01-09T15:34:31.331Z,73.58
2019-01-09T15:37:01.563Z,73.43
2019-01-09T15:39:32.796Z,74.12
2019-01-09T15:42:03.002Z,73.98
2019-01-09T15:44:33.291Z,74.10
2019-01-09T15:47:03.382Z,74.29
2019-01-09T15:49:34.609Z,74.32
2019-01-09T15:52:04.905Z,74.70
2019-01-09T15:54:34.971Z,74.92
2019-01-09T15:57:05.404Z,75.21
2019-01-09T15:59:35.571Z,74.99
2019-01-09T16:02:05.977Z,74.54
2019-01-09T16:04:37.537Z,74.55
2019-01-09T16:07:07.596Z,74.59
2019-01-09T16:09:37.736Z,75.83
2019-01-09T16:12:07.977Z,76.01
2019-01-09T16:14:38.157Z,75.50
2019-01-09T16:17:09.437Z,75.85
2019-01-09T16:19:39.651Z,75.84
2019-01-09T16:22:09.827Z,76.21
2019-01-09T16:24:39.974Z,75.64
2019-01-09T16:27:10.184Z,75.84
2019-01-09T16:29:41.015Z,75.93
2019-01-09T16:32:11.281Z,76.03
2019-01-09T16:34:41.464Z,76.48
2019-01-09T16:37:11.581Z,76.57
2019-01-09T16:39:42.403Z,76.67
2019-01-09T16:42:13.094Z,76.12
2019-01-09T16:44:44.183Z,76.67
2019-01-09T16:47:14.406Z,76.48
2019-01-09T16:49:44.650Z,76.56
2019-01-09T16:52:15.577Z,77.61
2019-01-09T16:54:47.253Z,77.13
2019-01-09T16:57:18.969Z,77.24
2019-01-09T16:59:53.384Z,77.42
2019-01-09T17:02:24.981Z,77.81
2019-01-09T17:04:55.263Z,77.96
2019-01-09T17:07:26.720Z,77.57
2019-01-09T17:09:57.826Z,77.33
2019-01-09T17:12:37.917Z,77.77
2019-01-09T17:15:29.080Z,77.12
2019-01-09T17:18:00.180Z,77.06
2019-01-09T17:20:32.852Z,77.43
2019-01-09T17:23:05.867Z,77.41
2019-01-09T17:25:36.093Z,76.78
2019-01-09T17:28:07.826Z,77.21
2019-01-09T17:30:37.930Z,76.71
2019-01-09T17:33:15.898Z,76.30
2019-01-09T17:35:45.977Z,75.22
2019-01-09T17:38:17.135Z,75.09
2019-01-09T17:40:48.460Z,75.49
2019-01-09T17:43:18.681Z,74.65
2019-01-09T17:45:49.183Z,75.07
2019-01-09T17:48:19.548Z,74.89
2019-01-09T17:50:49.715Z,74.55
2019-01-09T17:53:19.841Z,74.42
2019-01-09T17:55:49.969Z,74.82
2019-01-09T17:58:39.682Z,74.88
2019-01-09T18:01:10.124Z,75.06
2019-01-09T18:03:40.690Z,74.47
2019-01-09T18:06:10.794Z,74.65
2019-01-09T18:08:42.547Z,75.42
2019-01-09T18:11:13.068Z,74.86
2019-01-09T18:13:43.264Z,74.62
2019-01-09T18:16:13.377Z,74.93
2019-01-09T18:18:43.627Z,74.94
2019-01-09T18:21:13.868Z,75.15
2019-01-09T18:23:44.120Z,74.71
2019-01-09T18:26:14.422Z,74.45
2019-01-09T18:28:46.509Z,74.40
2019-01-09T18:31:58.947Z,74.43
2019-01-09T18:34:59.432Z,74.65
2019-01-09T18:37:38.663Z,74.45
2019-01-09T18:40:38.725Z,74.80
2019-01-09T18:43:32.886Z,74.50
2019-01-09T18:46:45.627Z,75.18
2019-01-09T18:49:54.796Z,75.40
2019-01-09T18:52:43.486Z,75.25
2019-01-09T18:55:14.135Z,75.20
2019-01-09T18:57:44.295Z,75.93
2019-01-09T19:00:18.630Z,75.92
2019-01-09T19:02:48.833Z,76.47
2019-01-09T19:05:21.161Z,76.73
2019-01-09T19:07:51.435Z,76.81
2019-01-09T19:10:23.996Z,76.78
2019-01-09T19:12:54.235Z,77.24
2019-01-09T19:15:26.027Z,77.22
2019-01-09T19:17:56.285Z,77.30
2019-01-09T19:20:28.126Z,77.83
2019-01-09T19:22:58.516Z,78.23
2019-01-09T19:25:28.742Z,78.26
2019-01-09T19:27:59.024Z,78.28
2019-01-09T19:30:31.312Z,77.97
2019-01-09T19:33:01.841Z,79.09
2019-01-09T19:35:32.384Z,78.94
2019-01-09T19:38:03.168Z,78.13
2019-01-09T19:40:33.314Z,79.01
2019-01-09T19:43:06.052Z,79.38
2019-01-09T19:45:36.193Z,80.04
2019-01-09T19:48:06.672Z,80.17
2019-01-09T19:50:42.691Z,80.13
2019-01-09T19:53:10.442Z,79.63
2019-01-09T19:55:41.557Z,80.13
2019-01-09T19:58:11.673Z,80.78
2019-01-09T20:00:41.896Z,80.75
2019-01-09T20:03:12.500Z,80.55
2019-01-09T20:05:42.903Z,80.35
2019-01-09T20:08:13.140Z,81.21
2019-01-09T20:10:43.391Z,81.72
2019-01-09T20:13:13.741Z,81.80
2019-01-09T20:15:44.078Z,81.58
2019-01-09T20:18:14.379Z,81.73
2019-01-09T20:20:44.689Z,82.64
2019-01-09T20:23:15.488Z,82.68
2019-01-09T20:25:45.844Z,83.15
2019-01-09T20:28:16.116Z,83.31
2019-01-09T20:30:46.502Z,83.08
2019-01-09T20:33:19.032Z,83.33
2019-01-09T20:35:49.361Z,83.54
2019-01-09T20:38:20.833Z,83.21
2019-01-09T20:40:53.760Z,83.23
2019-01-09T20:43:23.925Z,83.44
2019-01-09T20:45:54.121Z,83.47
2019-01-09T20:48:24.237Z,83.37
2019-01-09T20:50:54.547Z,82.85
2019-01-09T20:53:24.809Z,83.06
2019-01-09T20:55:54.994Z,83.11
2019-01-09T20:58:25.222Z,83.52
2019-01-09T21:00:55.543Z,83.36
2019-01-09T21:03:26.664Z,83.49
2019-01-09T21:05:56.908Z,83.90
2019-01-09T21:08:27.034Z,83.58
2019-01-09T21:10:58.191Z,84.15
2019-01-09T21:13:28.404Z,84.06
2019-01-09T21:15:58.551Z,84.01
2019-01-09T21:18:28.801Z,84.59
2019-01-09T21:21:01.106Z,84.58
2019-01-09T21:23:31.346Z,84.64
2019-01-09T21:26:01.510Z,84.12
2019-01-09T21:28:31.728Z,84.88
2019-01-09T21:31:02.027Z,84.78
2019-01-09T21:33:32.337Z,85.98
2019-01-09T21:36:02.465Z,85.90
2019-01-09T21:38:32.728Z,85.39
2019-01-09T21:41:02.976Z,86.17
2019-01-09T21:43:33.194Z,85.56
2019-01-09T21:46:03.436Z,85.32
2019-01-09T21:48:33.496Z,85.18
2019-01-09T21:51:03.857Z,84.78
2019-01-09T21:53:34.527Z,86.89
2019-01-09T21:56:05.034Z,86.58
2019-01-09T21:58:35.335Z,86.11
2019-01-09T22:01:05.889Z,85.75
2019-01-09T22:03:35.807Z,85.57
2019-01-09T22:06:06.532Z,85.68
2019-01-09T22:08:36.861Z,86.32
2019-01-09T22:11:06.977Z,86.06
2019-01-09T22:13:36.993Z,86.03
2019-01-09T22:16:07.261Z,86.76
2019-01-09T22:18:37.351Z,86.59
2019-01-09T22:21:09.635Z,86.50
2019-01-09T22:23:39.667Z,85.93
2019-01-09T22:26:09.736Z,85.98
2019-01-09T22:28:39.783Z,86.46
2019-01-09T22:31:09.895Z,87.52
2019-01-09T22:33:39.640Z,87.37
2019-01-09T22:36:10.863Z,87.37
2019-01-09T22:38:40.861Z,87.47
2019-01-09T22:41:10.500Z,87.66
2019-01-09T22:43:40.217Z,87.84
2019-01-09T22:46:09.765Z,87.44
2019-01-09T22:48:39.286Z,87.32
2019-01-09T22:51:08.955Z,88.76
2019-01-09T22:53:38.476Z,88.92
2019-01-09T22:56:08.249Z,88.31
2019-01-09T22:58:37.785Z,88.80
2019-01-09T23:01:27.605Z,88.38
2019-01-09T23:03:57.442Z,88.56
2019-01-09T23:06:27.082Z,88.86
2019-01-09T23:08:56.691Z,88.56
2019-01-09T23:11:26.253Z,88.53
2019-01-09T23:13:56.158Z,88.84
2019-01-09T23:16:25.749Z,88.76
2019-01-09T23:18:55.598Z,89.10
2019-01-09T23:21:25.410Z,89.46
2019-01-09T23:23:55.031Z,89.11
2019-01-09T23:26:24.692Z,89.54
2019-01-09T23:28:54.375Z,89.29
2019-01-09T23:31:33.546Z,88.85
2019-01-09T23:34:03.226Z,89.61
2019-01-09T23:36:33.092Z,89.50
2019-01-09T23:39:02.971Z,89.44
2019-01-09T23:41:32.523Z,89.79
2019-01-09T23:44:02.237Z,89.90
2019-01-09T23:46:31.916Z,89.32
2019-01-09T23:49:01.595Z,89.97
2019-01-09T23:51:31.259Z,89.88
2019-01-09T23:54:00.796Z,90.03
2019-01-09T23:56:30.500Z,89.93
2019-01-09T23:59:00.220Z,90.29
